sensor_id;sensor_type;location;lat;lon;timestamp;pressure;altitude;pressure_sealevel;temperature;humidity
57574;BME280;68988;49.000;21.242;2023-08-08T00:00:22;98270.44;;;25.69;44.93
57574;BME280;68988;49.000;21.242;2023-08-08T00:02:48;98263.44;;;25.68;45.31
57574;BME280;68988;49.000;21.242;2023-08-08T00:05:13;98265.34;;;25.68;45.26
57574;BME280;68988;49.000;21.242;2023-08-08T00:07:39;98274.47;;;25.67;45.19
57574;BME280;68988;49.000;21.242;2023-08-08T00:10:04;98269.09;;;25.67;44.95
57574;BME280;68988;49.000;21.242;2023-08-08T00:12:30;98280.13;;;25.65;45.30
57574;BME280;68988;49.000;21.242;2023-08-08T00:14:55;98277.16;;;25.67;45.28
57574;BME280;68988;49.000;21.242;2023-08-08T00:17:21;98281.97;;;25.70;45.21
57574;BME280;68988;49.000;21.242;2023-08-08T00:19:46;98290.00;;;25.70;45.18
57574;BME280;68988;49.000;21.242;2023-08-08T00:22:11;98295.16;;;25.66;44.79
57574;BME280;68988;49.000;21.242;2023-08-08T00:24:36;98292.69;;;25.70;44.76
57574;BME280;68988;49.000;21.242;2023-08-08T00:27:02;98301.56;;;25.70;44.81
57574;BME280;68988;49.000;21.242;2023-08-08T00:29:27;98306.41;;;25.68;45.33
57574;BME280;68988;49.000;21.242;2023-08-08T00:31:53;98298.66;;;25.67;45.35
57574;BME280;68988;49.000;21.242;2023-08-08T00:34:18;98310.44;;;25.71;44.78
57574;BME280;68988;49.000;21.242;2023-08-08T00:36:44;98308.81;;;25.70;44.88
57574;BME280;68988;49.000;21.242;2023-08-08T00:39:09;98305.63;;;25.68;45.01
57574;BME280;68988;49.000;21.242;2023-08-08T00:41:35;98305.63;;;25.68;44.73
57574;BME280;68988;49.000;21.242;2023-08-08T00:44:00;98311.00;;;25.68;45.03
57574;BME280;68988;49.000;21.242;2023-08-08T00:46:25;98316.88;;;25.70;45.05
57574;BME280;68988;49.000;21.242;2023-08-08T00:48:51;98311.28;;;25.66;45.15
57574;BME280;68988;49.000;21.242;2023-08-08T00:51:18;98317.16;;;25.68;44.92
57574;BME280;68988;49.000;21.242;2023-08-08T00:53:44;98319.56;;;25.70;44.88
57574;BME280;68988;49.000;21.242;2023-08-08T00:56:13;98314.47;;;25.68;44.93
57574;BME280;68988;49.000;21.242;2023-08-08T00:58:39;98319.34;;;25.66;44.82
57574;BME280;68988;49.000;21.242;2023-08-08T01:01:05;98321.22;;;25.66;44.75
57574;BME280;68988;49.000;21.242;2023-08-08T01:03:30;98323.09;;;25.65;44.75
57574;BME280;68988;49.000;21.242;2023-08-08T01:06:02;98321.44;;;25.69;44.62
57574;BME280;68988;49.000;21.242;2023-08-08T01:08:35;98320.38;;;25.70;44.94
57574;BME280;68988;49.000;21.242;2023-08-08T01:11:03;98329.78;;;25.68;44.58
57574;BME280;68988;49.000;21.242;2023-08-08T01:13:30;98330.06;;;25.66;44.85
57574;BME280;68988;49.000;21.242;2023-08-08T01:15:57;98336.03;;;25.63;45.08
57574;BME280;68988;49.000;21.242;2023-08-08T01:18:23;98339.47;;;25.69;44.95
57574;BME280;68988;49.000;21.242;2023-08-08T01:20:50;98344.28;;;25.67;44.63
57574;BME280;68988;49.000;21.242;2023-08-08T01:26:21;98338.94;;;25.67;44.82
57574;BME280;68988;49.000;21.242;2023-08-08T01:28:47;98345.16;;;25.62;44.77
57574;BME280;68988;49.000;21.242;2023-08-08T01:31:12;98333.06;;;25.65;44.84
57574;BME280;68988;49.000;21.242;2023-08-08T01:33:38;98344.28;;;25.67;44.95
57574;BME280;68988;49.000;21.242;2023-08-08T01:36:10;98346.13;;;25.71;44.60
57574;BME280;68988;49.000;21.242;2023-08-08T01:38:42;98345.91;;;25.68;45.08
57574;BME280;68988;49.000;21.242;2023-08-08T01:41:09;98340.53;;;25.68;44.81
57574;BME280;68988;49.000;21.242;2023-08-08T01:43:36;98341.84;;;25.70;44.59
57574;BME280;68988;49.000;21.242;2023-08-08T01:46:03;98345.91;;;25.68;44.96
57574;BME280;68988;49.000;21.242;2023-08-08T01:48:29;98333.28;;;25.68;44.70
57574;BME280;68988;49.000;21.242;2023-08-08T01:50:55;98337.56;;;25.69;44.48
57574;BME280;68988;49.000;21.242;2023-08-08T01:53:20;98339.97;;;25.71;44.49
57574;BME280;68988;49.000;21.242;2023-08-08T01:55:46;98343.22;;;25.68;44.84
57574;BME280;68988;49.000;21.242;2023-08-08T01:58:11;98340.81;;;25.66;44.93
57574;BME280;68988;49.000;21.242;2023-08-08T02:00:36;98345.91;;;25.68;44.83
57574;BME280;68988;49.000;21.242;2023-08-08T02:03:02;98347.22;;;25.70;44.67
57574;BME280;68988;49.000;21.242;2023-08-08T02:05:28;98337.84;;;25.68;44.59
57574;BME280;68988;49.000;21.242;2023-08-08T02:07:53;98347.25;;;25.65;44.72
57574;BME280;68988;49.000;21.242;2023-08-08T02:10:19;98348.03;;;25.71;44.61
57574;BME280;68988;49.000;21.242;2023-08-08T02:12:44;98356.94;;;25.66;44.93
57574;BME280;68988;49.000;21.242;2023-08-08T02:15:09;98355.00;;;25.72;44.49
57574;BME280;68988;49.000;21.242;2023-08-08T02:17:37;98352.88;;;25.69;44.32
57574;BME280;68988;49.000;21.242;2023-08-08T02:20:03;98358.81;;;25.66;44.93
57574;BME280;68988;49.000;21.242;2023-08-08T02:22:28;98361.50;;;25.66;44.76
57574;BME280;68988;49.000;21.242;2023-08-08T02:24:54;98367.91;;;25.70;44.91
57574;BME280;68988;49.000;21.242;2023-08-08T02:27:19;98376.25;;;25.68;44.52
57574;BME280;68988;49.000;21.242;2023-08-08T02:29:44;98374.88;;;25.71;44.40
57574;BME280;68988;49.000;21.242;2023-08-08T02:32:10;98377.84;;;25.69;44.68
57574;BME280;68988;49.000;21.242;2023-08-08T02:34:35;98380.53;;;25.69;44.69
57574;BME280;68988;49.000;21.242;2023-08-08T02:37:00;98373.84;;;25.67;44.69
57574;BME280;68988;49.000;21.242;2023-08-08T02:39:26;98375.66;;;25.71;44.86
57574;BME280;68988;49.000;21.242;2023-08-08T02:41:51;98380.59;;;25.64;44.48
57574;BME280;68988;49.000;21.242;2023-08-08T02:44:16;98381.09;;;25.66;44.96
57574;BME280;68988;49.000;21.242;2023-08-08T02:46:42;98383.00;;;25.66;44.78
57574;BME280;68988;49.000;21.242;2023-08-08T02:49:07;98386.75;;;25.65;44.66
57574;BME280;68988;49.000;21.242;2023-08-08T02:51:32;98392.91;;;25.65;44.73
57574;BME280;68988;49.000;21.242;2023-08-08T02:53:58;98402.88;;;25.65;44.43
57574;BME280;68988;49.000;21.242;2023-08-08T02:56:23;98405.28;;;25.66;44.59
57574;BME280;68988;49.000;21.242;2023-08-08T02:58:48;98411.44;;;25.67;44.37
57574;BME280;68988;49.000;21.242;2023-08-08T03:01:14;98414.97;;;25.62;44.67
57574;BME280;68988;49.000;21.242;2023-08-08T03:03:41;98416.56;;;25.63;44.64
57574;BME280;68988;49.000;21.242;2023-08-08T03:06:06;98406.63;;;25.64;44.38
57574;BME280;68988;49.000;21.242;2023-08-08T03:08:32;98413.03;;;25.68;44.40
57574;BME280;68988;49.000;21.242;2023-08-08T03:10:57;98429.09;;;25.73;44.27
57574;BME280;68988;49.000;21.242;2023-08-08T03:13:23;98427.53;;;25.67;44.76
57574;BME280;68988;49.000;21.242;2023-08-08T03:15:48;98428.38;;;25.67;44.25
57574;BME280;68988;49.000;21.242;2023-08-08T03:18:13;98424.34;;;25.65;44.60
57574;BME280;68988;49.000;21.242;2023-08-08T03:20:39;98424.84;;;25.67;44.52
57574;BME280;68988;49.000;21.242;2023-08-08T03:23:04;98430.19;;;25.72;44.56
57574;BME280;68988;49.000;21.242;2023-08-08T03:25:29;98432.63;;;25.68;44.37
57574;BME280;68988;49.000;21.242;2023-08-08T03:27:55;98432.69;;;25.63;44.23
57574;BME280;68988;49.000;21.242;2023-08-08T03:30:20;98444.75;;;25.66;44.53
57574;BME280;68988;49.000;21.242;2023-08-08T03:32:46;98444.75;;;25.66;44.14
57574;BME280;68988;49.000;21.242;2023-08-08T03:35:11;98443.66;;;25.67;44.08
57574;BME280;68988;49.000;21.242;2023-08-08T03:37:37;98435.88;;;25.65;44.22
57574;BME280;68988;49.000;21.242;2023-08-08T03:40:03;98445.25;;;25.68;44.49
57574;BME280;68988;49.000;21.242;2023-08-08T03:42:28;98439.41;;;25.61;44.48
57574;BME280;68988;49.000;21.242;2023-08-08T03:44:54;98444.22;;;25.64;44.48
57574;BME280;68988;49.000;21.242;2023-08-08T03:47:19;98450.13;;;25.66;44.60
57574;BME280;68988;49.000;21.242;2023-08-08T03:49:44;98445.03;;;25.64;44.02
57574;BME280;68988;49.000;21.242;2023-08-08T03:52:10;98444.47;;;25.67;44.12
57574;BME280;68988;49.000;21.242;2023-08-08T03:54:35;98453.09;;;25.64;44.33
57574;BME280;68988;49.000;21.242;2023-08-08T03:57:00;98451.75;;;25.62;44.68
57574;BME280;68988;49.000;21.242;2023-08-08T03:59:26;98460.34;;;25.64;44.57
57574;BME280;68988;49.000;21.242;2023-08-08T04:01:51;98468.09;;;25.65;44.46
57574;BME280;68988;49.000;21.242;2023-08-08T04:04:17;98468.09;;;25.65;44.28
57574;BME280;68988;49.000;21.242;2023-08-08T04:06:42;98469.72;;;25.66;43.48
57574;BME280;68988;49.000;21.242;2023-08-08T04:09:07;98466.75;;;25.68;44.57
57574;BME280;68988;49.000;21.242;2023-08-08T04:11:33;98471.31;;;25.67;43.94
57574;BME280;68988;49.000;21.242;2023-08-08T04:14:01;98475.09;;;25.66;44.36
57574;BME280;68988;49.000;21.242;2023-08-08T04:16:26;98479.66;;;25.66;44.09
57574;BME280;68988;49.000;21.242;2023-08-08T04:18:52;98478.06;;;25.65;44.14
57574;BME280;68988;49.000;21.242;2023-08-08T04:21:17;98492.56;;;25.64;44.20
57574;BME280;68988;49.000;21.242;2023-08-08T04:23:42;98487.44;;;25.67;44.30
57574;BME280;68988;49.000;21.242;2023-08-08T04:26:08;98486.09;;;25.65;44.35
57574;BME280;68988;49.000;21.242;2023-08-08T04:28:33;98487.16;;;25.69;44.08
57574;BME280;68988;49.000;21.242;2023-08-08T04:30:58;98487.44;;;25.67;44.40
57574;BME280;68988;49.000;21.242;2023-08-08T04:33:24;98485.03;;;25.66;44.51
57574;BME280;68988;49.000;21.242;2023-08-08T04:35:49;98493.31;;;25.69;43.99
57574;BME280;68988;49.000;21.242;2023-08-08T04:38:15;98498.47;;;25.66;44.12
57574;BME280;68988;49.000;21.242;2023-08-08T04:40:41;98496.34;;;25.63;44.13
57574;BME280;68988;49.000;21.242;2023-08-08T04:43:06;98501.94;;;25.66;44.17
57574;BME280;68988;49.000;21.242;2023-08-08T04:45:31;98513.47;;;25.67;44.29
57574;BME280;68988;49.000;21.242;2023-08-08T04:47:57;98516.44;;;25.65;44.21
57574;BME280;68988;49.000;21.242;2023-08-08T04:50:23;98519.66;;;25.67;44.09
57574;BME280;68988;49.000;21.242;2023-08-08T04:52:48;98518.28;;;25.70;44.09
57574;BME280;68988;49.000;21.242;2023-08-08T04:55:13;98520.75;;;25.66;44.17
57574;BME280;68988;49.000;21.242;2023-08-08T04:57:39;98525.81;;;25.68;44.12
57574;BME280;68988;49.000;21.242;2023-08-08T05:00:05;98532.81;;;25.69;43.99
57574;BME280;68988;49.000;21.242;2023-08-08T05:02:36;98532.81;;;25.69;44.11
57574;BME280;68988;49.000;21.242;2023-08-08T05:05:04;98544.34;;;25.69;44.33
57574;BME280;68988;49.000;21.242;2023-08-08T05:07:30;98537.63;;;25.67;44.45
57574;BME280;68988;49.000;21.242;2023-08-08T05:09:55;98538.75;;;25.66;44.24
57574;BME280;68988;49.000;21.242;2023-08-08T05:12:21;98543.00;;;25.67;44.74
57574;BME280;68988;49.000;21.242;2023-08-08T05:14:46;98545.97;;;25.65;44.82
57574;BME280;68988;49.000;21.242;2023-08-08T05:17:11;98547.31;;;25.68;44.33
57574;BME280;68988;49.000;21.242;2023-08-08T05:19:37;98550.50;;;25.70;44.30
57574;BME280;68988;49.000;21.242;2023-08-08T05:22:02;98551.06;;;25.67;44.33
57574;BME280;68988;49.000;21.242;2023-08-08T05:24:28;98551.06;;;25.67;44.18
57574;BME280;68988;49.000;21.242;2023-08-08T05:26:53;98555.66;;;25.66;44.28
57574;BME280;68988;49.000;21.242;2023-08-08T05:29:19;98568.28;;;25.66;44.64
57574;BME280;68988;49.000;21.242;2023-08-08T05:31:46;98567.19;;;25.67;44.55
57574;BME280;68988;49.000;21.242;2023-08-08T05:34:11;98579.03;;;25.66;44.31
57574;BME280;68988;49.000;21.242;2023-08-08T05:36:37;98574.72;;;25.65;44.14
57574;BME280;68988;49.000;21.242;2023-08-08T05:39:02;98580.09;;;25.65;44.40
57574;BME280;68988;49.000;21.242;2023-08-08T05:41:28;98583.56;;;25.65;44.49
57574;BME280;68988;49.000;21.242;2023-08-08T05:43:53;98579.88;;;25.61;45.26
57574;BME280;68988;49.000;21.242;2023-08-08T05:46:19;98582.00;;;25.59;45.29
57574;BME280;68988;49.000;21.242;2023-08-08T05:48:44;98587.94;;;25.56;45.53
57574;BME280;68988;49.000;21.242;2023-08-08T05:51:09;98583.38;;;25.57;45.19
57574;BME280;68988;49.000;21.242;2023-08-08T05:53:35;98590.34;;;25.58;45.11
57574;BME280;68988;49.000;21.242;2023-08-08T05:56:00;98588.19;;;25.60;45.33
57574;BME280;68988;49.000;21.242;2023-08-08T05:58:26;98589.25;;;25.59;45.42
57574;BME280;68988;49.000;21.242;2023-08-08T06:00:52;98589.78;;;25.61;45.43
57574;BME280;68988;49.000;21.242;2023-08-08T06:03:17;98591.41;;;25.62;45.46
57574;BME280;68988;49.000;21.242;2023-08-08T06:05:42;98585.47;;;25.65;45.38
57574;BME280;68988;49.000;21.242;2023-08-08T06:08:08;98597.25;;;25.69;45.08
57574;BME280;68988;49.000;21.242;2023-08-08T06:10:37;98590.84;;;25.65;45.36
57574;BME280;68988;49.000;21.242;2023-08-08T06:13:02;98589.50;;;25.62;45.54
57574;BME280;68988;49.000;21.242;2023-08-08T06:15:27;98592.44;;;25.66;45.65
57574;BME280;68988;49.000;21.242;2023-08-08T06:17:53;98593.47;;;25.70;45.00
57574;BME280;68988;49.000;21.242;2023-08-08T06:20:18;98585.19;;;25.66;45.42
57574;BME280;68988;49.000;21.242;2023-08-08T06:22:44;98576.00;;;25.72;45.42
57574;BME280;68988;49.000;21.242;2023-08-08T06:25:09;98572.28;;;25.68;45.44
57574;BME280;68988;49.000;21.242;2023-08-08T06:27:36;98572.28;;;25.68;45.32
57574;BME280;68988;49.000;21.242;2023-08-08T06:30:01;98586.75;;;25.72;45.60
57574;BME280;68988;49.000;21.242;2023-08-08T06:32:28;98593.47;;;25.70;45.65
57574;BME280;68988;49.000;21.242;2023-08-08T06:34:53;98592.41;;;25.71;45.66
57574;BME280;68988;49.000;21.242;2023-08-08T06:37:20;98605.56;;;25.72;46.01
57574;BME280;68988;49.000;21.242;2023-08-08T06:39:45;98606.63;;;25.71;45.38
57574;BME280;68988;49.000;21.242;2023-08-08T06:42:11;98606.63;;;25.71;45.62
57574;BME280;68988;49.000;21.242;2023-08-08T06:44:41;98610.66;;;25.74;45.27
57574;BME280;68988;49.000;21.242;2023-08-08T06:47:08;98608.25;;;25.72;45.26
57574;BME280;68988;49.000;21.242;2023-08-08T06:49:33;98608.25;;;25.72;45.63
57574;BME280;68988;49.000;21.242;2023-08-08T06:51:58;98601.53;;;25.70;45.61
57574;BME280;68988;49.000;21.242;2023-08-08T06:54:24;98602.06;;;25.72;45.86
57574;BME280;68988;49.000;21.242;2023-08-08T06:56:49;98611.19;;;25.71;45.49
57574;BME280;68988;49.000;21.242;2023-08-08T06:59:14;98611.19;;;25.71;45.25
57574;BME280;68988;49.000;21.242;2023-08-08T07:01:40;98612.53;;;25.73;45.05
57574;BME280;68988;49.000;21.242;2023-08-08T07:04:05;98609.03;;;25.73;44.87
57574;BME280;68988;49.000;21.242;2023-08-08T07:06:30;98601.25;;;25.71;44.93
57574;BME280;68988;49.000;21.242;2023-08-08T07:08:56;98603.66;;;25.73;45.16
57574;BME280;68988;49.000;21.242;2023-08-08T07:11:21;98603.66;;;25.73;44.99
57574;BME280;68988;49.000;21.242;2023-08-08T07:13:47;98607.44;;;25.72;45.03
57574;BME280;68988;49.000;21.242;2023-08-08T07:16:12;98597.50;;;25.72;45.10
57574;BME280;68988;49.000;21.242;2023-08-08T07:18:38;98598.28;;;25.73;45.37
57574;BME280;68988;49.000;21.242;2023-08-08T07:21:03;98599.63;;;25.76;44.95
57574;BME280;68988;49.000;21.242;2023-08-08T07:23:28;98598.56;;;25.77;44.90
57574;BME280;68988;49.000;21.242;2023-08-08T07:25:54;98599.34;;;25.77;45.10
57574;BME280;68988;49.000;21.242;2023-08-08T07:28:19;98598.78;;;25.80;45.00
57574;BME280;68988;49.000;21.242;2023-08-08T07:30:45;98600.91;;;25.83;44.55
57574;BME280;68988;49.000;21.242;2023-08-08T07:33:10;98596.88;;;25.86;44.48
57574;BME280;68988;49.000;21.242;2023-08-08T07:35:35;98598.72;;;25.85;44.28
57574;BME280;68988;49.000;21.242;2023-08-08T07:38:01;98603.81;;;25.87;44.71
57574;BME280;68988;49.000;21.242;2023-08-08T07:40:26;98608.41;;;25.86;44.90
57574;BME280;68988;49.000;21.242;2023-08-08T07:42:52;98605.44;;;25.88;44.35
57574;BME280;68988;49.000;21.242;2023-08-08T07:45:17;98606.22;;;25.88;44.44
57574;BME280;68988;49.000;21.242;2023-08-08T07:47:43;98602.47;;;25.89;44.71
57574;BME280;68988;49.000;21.242;2023-08-08T07:50:09;98611.31;;;25.90;44.76
57574;BME280;68988;49.000;21.242;2023-08-08T07:52:35;98604.38;;;25.89;44.18
57574;BME280;68988;49.000;21.242;2023-08-08T07:55:01;98606.22;;;25.88;44.27
57574;BME280;68988;49.000;21.242;2023-08-08T07:57:27;98604.09;;;25.90;44.68
57574;BME280;68988;49.000;21.242;2023-08-08T07:59:53;98606.50;;;25.92;43.88
57574;BME280;68988;49.000;21.242;2023-08-08T08:02:18;98605.94;;;25.95;43.99
57574;BME280;68988;49.000;21.242;2023-08-08T08:04:43;98610.47;;;25.95;44.25
57574;BME280;68988;49.000;21.242;2023-08-08T08:07:09;98607.78;;;25.95;43.99
57574;BME280;68988;49.000;21.242;2023-08-08T08:09:34;98612.06;;;26.01;43.84
57574;BME280;68988;49.000;21.242;2023-08-08T08:11:59;98604.81;;;25.96;43.45
57574;BME280;68988;49.000;21.242;2023-08-08T08:14:25;98606.72;;;25.96;43.31
57574;BME280;68988;49.000;21.242;2023-08-08T08:16:50;98598.16;;;25.94;43.55
57574;BME280;68988;49.000;21.242;2023-08-08T08:19:16;98607.28;;;25.92;43.61
57574;BME280;68988;49.000;21.242;2023-08-08T08:21:41;98600.28;;;25.91;43.05
57574;BME280;68988;49.000;21.242;2023-08-08T08:24:07;98613.19;;;26.00;43.92
57574;BME280;68988;49.000;21.242;2023-08-08T08:26:32;98601.34;;;25.96;43.41
57574;BME280;68988;49.000;21.242;2023-08-08T08:28:58;98589.00;;;25.95;43.15
57574;BME280;68988;49.000;21.242;2023-08-08T08:31:23;98587.13;;;25.95;43.66
57574;BME280;68988;49.000;21.242;2023-08-08T08:33:48;98599.19;;;25.98;43.45
57574;BME280;68988;49.000;21.242;2023-08-08T08:36:14;98597.59;;;25.97;43.17
57574;BME280;68988;49.000;21.242;2023-08-08T08:38:39;98593.25;;;26.01;42.76
57574;BME280;68988;49.000;21.242;2023-08-08T08:41:05;98597.06;;;26.00;43.32
57574;BME280;68988;49.000;21.242;2023-08-08T08:43:31;98598.63;;;26.01;42.96
57574;BME280;68988;49.000;21.242;2023-08-08T08:45:59;98599.69;;;26.05;42.53
57574;BME280;68988;49.000;21.242;2023-08-08T08:48:25;98599.19;;;26.03;42.79
57574;BME280;68988;49.000;21.242;2023-08-08T08:50:51;98593.53;;;26.04;43.00
57574;BME280;68988;49.000;21.242;2023-08-08T08:53:16;98583.56;;;26.05;43.16
57574;BME280;68988;49.000;21.242;2023-08-08T08:55:43;98585.69;;;26.08;43.04
57574;BME280;68988;49.000;21.242;2023-08-08T08:58:09;98588.38;;;26.08;43.29
57574;BME280;68988;49.000;21.242;2023-08-08T09:00:35;98582.22;;;26.07;42.91
57574;BME280;68988;49.000;21.242;2023-08-08T09:03:02;98588.09;;;26.09;42.64
57574;BME280;68988;49.000;21.242;2023-08-08T09:05:28;98585.69;;;26.08;42.81
57574;BME280;68988;49.000;21.242;2023-08-08T09:07:54;98577.13;;;26.06;42.71
57574;BME280;68988;49.000;21.242;2023-08-08T09:10:20;98577.13;;;26.06;42.48
57574;BME280;68988;49.000;21.242;2023-08-08T09:12:45;98577.41;;;26.04;42.55
57574;BME280;68988;49.000;21.242;2023-08-08T09:15:11;98588.94;;;26.05;42.97
57574;BME280;68988;49.000;21.242;2023-08-08T09:17:43;98592.41;;;26.11;43.01
57574;BME280;68988;49.000;21.242;2023-08-08T09:20:12;98585.19;;;26.01;42.61
57574;BME280;68988;49.000;21.242;2023-08-08T09:22:37;98590.06;;;25.99;43.07
57574;BME280;68988;49.000;21.242;2023-08-08T09:25:05;98586.03;;;26.01;42.68
57574;BME280;68988;49.000;21.242;2023-08-08T09:27:30;98581.47;;;25.97;43.11
57574;BME280;68988;49.000;21.242;2023-08-08T09:29:56;98583.09;;;25.98;43.30
57574;BME280;68988;49.000;21.242;2023-08-08T09:32:21;98581.72;;;26.00;42.92
57574;BME280;68988;49.000;21.242;2023-08-08T09:34:47;98583.91;;;25.98;42.96
57574;BME280;68988;49.000;21.242;2023-08-08T09:37:12;98581.75;;;25.95;43.06
57574;BME280;68988;49.000;21.242;2023-08-08T09:39:39;98584.69;;;25.99;43.06
57574;BME280;68988;49.000;21.242;2023-08-08T09:42:05;98575.56;;;25.95;42.66
57574;BME280;68988;49.000;21.242;2023-08-08T09:44:33;98580.94;;;26.00;43.27
57574;BME280;68988;49.000;21.242;2023-08-08T09:47:00;98575.03;;;25.92;42.73
57574;BME280;68988;49.000;21.242;2023-08-08T09:49:26;98567.50;;;26.00;42.96
57574;BME280;68988;49.000;21.242;2023-08-08T09:51:52;98567.78;;;25.98;42.94
57574;BME280;68988;49.000;21.242;2023-08-08T09:54:18;98566.97;;;25.92;43.04
57574;BME280;68988;49.000;21.242;2023-08-08T09:56:44;98571.28;;;25.94;42.99
57574;BME280;68988;49.000;21.242;2023-08-08T09:59:09;98565.38;;;25.91;43.07
57574;BME280;68988;49.000;21.242;2023-08-08T10:01:36;98563.19;;;25.99;42.89
57574;BME280;68988;49.000;21.242;2023-08-08T10:04:06;98562.13;;;25.95;43.00
57574;BME280;68988;49.000;21.242;2023-08-08T10:06:31;98557.88;;;25.88;43.11
57574;BME280;68988;49.000;21.242;2023-08-08T10:08:57;98558.94;;;25.92;43.09
57574;BME280;68988;49.000;21.242;2023-08-08T10:11:24;98554.88;;;25.95;43.47
57574;BME280;68988;49.000;21.242;2023-08-08T10:13:52;98557.28;;;25.97;43.36
57574;BME280;68988;49.000;21.242;2023-08-08T10:16:18;98546.00;;;25.95;42.69
57574;BME280;68988;49.000;21.242;2023-08-08T10:18:58;98553.25;;;25.99;42.60
57574;BME280;68988;49.000;21.242;2023-08-08T10:21:24;98547.63;;;25.96;42.79
57574;BME280;68988;49.000;21.242;2023-08-08T10:24:01;98542.50;;;25.99;42.83
57574;BME280;68988;49.000;21.242;2023-08-08T10:26:27;98544.94;;;25.96;42.52
57574;BME280;68988;49.000;21.242;2023-08-08T10:28:56;98547.38;;;25.92;42.39
57574;BME280;68988;49.000;21.242;2023-08-08T10:31:22;98543.84;;;25.97;42.80
57574;BME280;68988;49.000;21.242;2023-08-08T10:33:47;98543.31;;;25.95;43.05
57574;BME280;68988;49.000;21.242;2023-08-08T10:36:13;98545.22;;;25.94;43.16
57574;BME280;68988;49.000;21.242;2023-08-08T10:41:04;98543.84;;;25.97;42.54
57574;BME280;68988;49.000;21.242;2023-08-08T10:43:30;98541.16;;;25.97;42.47
57574;BME280;68988;49.000;21.242;2023-08-08T10:46:00;98547.38;;;25.92;43.13
57574;BME280;68988;49.000;21.242;2023-08-08T10:48:26;98544.69;;;25.92;42.44
57574;BME280;68988;49.000;21.242;2023-08-08T10:50:57;98541.75;;;25.88;42.21
57574;BME280;68988;49.000;21.242;2023-08-08T10:53:25;98534.81;;;25.82;42.35
57574;BME280;68988;49.000;21.242;2023-08-08T10:56:04;98534.19;;;25.96;42.68
57574;BME280;68988;49.000;21.242;2023-08-08T11:01:01;98540.56;;;26.05;42.79
57574;BME280;68988;49.000;21.242;2023-08-08T11:03:29;98522.91;;;25.99;43.01
57574;BME280;68988;49.000;21.242;2023-08-08T11:05:55;98530.69;;;25.95;42.87
57574;BME280;68988;49.000;21.242;2023-08-08T11:08:21;98525.03;;;26.02;42.96
57574;BME280;68988;49.000;21.242;2023-08-08T11:10:51;98522.63;;;26.00;43.21
57574;BME280;68988;49.000;21.242;2023-08-08T11:13:17;98533.38;;;26.00;42.95
57574;BME280;68988;49.000;21.242;2023-08-08T11:15:42;98526.06;;;26.06;42.54
57574;BME280;68988;49.000;21.242;2023-08-08T11:18:08;98523.66;;;26.04;43.11
57574;BME280;68988;49.000;21.242;2023-08-08T11:20:35;98531.94;;;26.08;42.53
57574;BME280;68988;49.000;21.242;2023-08-08T11:23:02;98530.59;;;26.11;42.84
57574;BME280;68988;49.000;21.242;2023-08-08T11:25:30;98531.38;;;26.11;42.15
57574;BME280;68988;49.000;21.242;2023-08-08T11:27:57;98516.91;;;26.07;43.27
57574;BME280;68988;49.000;21.242;2023-08-08T11:30:23;98530.59;;;26.11;42.83
57574;BME280;68988;49.000;21.242;2023-08-08T11:32:50;98520.56;;;26.16;42.62
57574;BME280;68988;49.000;21.242;2023-08-08T11:35:17;98528.63;;;26.16;42.60
57574;BME280;68988;49.000;21.242;2023-08-08T11:37:44;98530.31;;;26.12;43.01
57574;BME280;68988;49.000;21.242;2023-08-08T11:40:11;98531.88;;;26.13;42.72
57574;BME280;68988;49.000;21.242;2023-08-08T11:42:38;98532.44;;;26.15;43.27
57574;BME280;68988;49.000;21.242;2023-08-08T11:45:04;98522.41;;;26.21;42.63
57574;BME280;68988;49.000;21.242;2023-08-08T11:47:29;98518.13;;;26.20;42.36
57574;BME280;68988;49.000;21.242;2023-08-08T11:50:00;98522.19;;;26.17;42.97
57574;BME280;68988;49.000;21.242;2023-08-08T11:52:27;98511.44;;;26.17;42.74
57574;BME280;68988;49.000;21.242;2023-08-08T11:54:53;98510.34;;;26.18;42.31
57574;BME280;68988;49.000;21.242;2023-08-08T11:57:18;98508.97;;;26.21;42.61
57574;BME280;68988;49.000;21.242;2023-08-08T11:59:43;98510.78;;;26.25;42.36
57574;BME280;68988;49.000;21.242;2023-08-08T12:02:09;98517.28;;;26.24;42.66
57574;BME280;68988;49.000;21.242;2023-08-08T12:04:35;98520.47;;;26.26;42.52
57574;BME280;68988;49.000;21.242;2023-08-08T12:07:01;98518.63;;;26.22;42.66
57574;BME280;68988;49.000;21.242;2023-08-08T12:09:31;98510.28;;;26.23;43.09
57574;BME280;68988;49.000;21.242;2023-08-08T12:11:59;98516.47;;;26.24;43.17
57574;BME280;68988;49.000;21.242;2023-08-08T12:14:25;98507.88;;;26.22;43.33
57574;BME280;68988;49.000;21.242;2023-08-08T12:16:50;98511.66;;;26.21;43.07
57574;BME280;68988;49.000;21.242;2023-08-08T12:19:16;98504.63;;;26.25;43.08
57574;BME280;68988;49.000;21.242;2023-08-08T12:21:46;98500.56;;;26.27;42.89
57574;BME280;68988;49.000;21.242;2023-08-08T12:24:11;98499.75;;;26.27;43.06
57574;BME280;68988;49.000;21.242;2023-08-08T12:26:37;98505.59;;;26.34;43.15
57574;BME280;68988;49.000;21.242;2023-08-08T12:29:02;98493.59;;;26.26;42.61
57574;BME280;68988;49.000;21.242;2023-08-08T12:31:28;98494.16;;;26.23;42.71
57574;BME280;68988;49.000;21.242;2023-08-08T12:33:53;98488.22;;;26.26;42.97
57574;BME280;68988;49.000;21.242;2023-08-08T12:36:19;98484.19;;;26.24;42.57
57574;BME280;68988;49.000;21.242;2023-08-08T12:38:44;98489.00;;;26.27;42.95
57574;BME280;68988;49.000;21.242;2023-08-08T12:41:11;98491.97;;;26.25;42.76
57574;BME280;68988;49.000;21.242;2023-08-08T12:43:36;98494.63;;;26.31;42.87
57574;BME280;68988;49.000;21.242;2023-08-08T12:46:02;98487.06;;;26.33;42.61
57574;BME280;68988;49.000;21.242;2023-08-08T12:48:27;98489.81;;;26.27;42.91
57574;BME280;68988;49.000;21.242;2023-08-08T12:50:52;98487.66;;;26.30;42.85